Lane, California
Current Conditions -  °F | °C
As of 12:56 AM on Saturday 20 Dec 2014 (Local Time) from KWJF Reporting Station
Clear Clear  
Wind Chill: 43°   Ceiling: Unl
Heat Index: 43°   Visibility: 10mi
Dew Point: 39°   Wind: 3mph
Humidity: 86%   Direction: 130°SE
Pressure: 30.16"   Gusts: NA
Location:  34.7349°N, 118.15°W
Report Text: KWJF 200856Z AUTO 13003KT 10SM CLR 06/04 A3016 RMK AO2 SLP219 T00610039 58007
Loading
Personal Weather Stations






























Interactive Weather Map New forecast layout! Learn more

10-Day Weather Forecast

Advertisements
Track Severe Weather on mobile